• Join FlightAware (Why Join?)
  • Login
  • US Flag 
10:44PM EDT


 

Airport Tracker/Info


-or-


 

Live Flight TrackerFlight Track Log ✈ CES2827 ✈ 31-Aug-2013 ✈ ZGKL / KWL - ZJSY / SYX

Flight Track Log - Related Links

Times and Time Zones

All times are in EDT time to prevent confusion due to time zone crossing. See the CES2827 flight status page for this flight to view local times or setup timezone preferences in your user account.

Time Position Orientation Groundspeed Altitude Reporting Facility
EDT Latitude Longitude Course Direction KTS MPH feet Rate Location/Type
08:19AM 23.4428 109.8722 185° South  Level Estimated
08:20AM 23.3494 109.8636 185° South  Level Estimated
08:21AM 23.2559 109.8549 185° South  Level Estimated
08:22AM 23.1625 109.8463 185° South  Level Estimated
08:23AM 23.0690 109.8377 185° South  Level Estimated
08:24AM 22.9756 109.8291 185° South  Level Estimated
08:25AM 22.8822 109.8205 185° South  Level Estimated
08:26AM 22.7887 109.8119 185° South  Level Estimated
08:27AM 22.6953 109.8033 185° South  Level Estimated
08:28AM 22.6018 109.7947 185° South  Level Estimated
08:29AM 22.5084 109.7862 185° South  Level Estimated
08:30AM 22.4149 109.7776 185° South  Level Estimated
08:31AM 22.3215 109.7691 185° South  Level Estimated
08:32AM 22.2280 109.7606 185° South  Level Estimated
08:33AM 22.1346 109.7521 185° South  Level Estimated
08:34AM 22.0411 109.7436 185° South  Level Estimated
08:35AM 21.9477 109.7351 185° South  Level Estimated
08:36AM 21.8542 109.7266 185° South  Level Estimated
08:37AM 21.7608 109.7182 185° South  Level Estimated
08:38AM 21.6673 109.7097 185° South  Level Estimated
08:39AM 21.5739 109.7013 185° South  Level Estimated
08:40AM 21.4804 109.6928 185° South  Level Estimated
08:41AM 21.3870 109.6844 185° South  Level Estimated
08:42AM 21.2935 109.6760 185° South  Level Estimated
08:43AM 21.2001 109.6676 185° South  Level Estimated
08:44AM 21.1066 109.6592 185° South  Level Estimated
08:45AM 21.0132 109.6508 185° South  Level Estimated
08:46AM 20.9197 109.6425 185° South  Level Estimated
08:47AM 20.8263 109.6341 185° South  Level Estimated
08:48AM 20.7328 109.6258 185° South  Level Estimated
08:49AM 20.6394 109.6175 185° South  Level Estimated
08:50AM 20.5459 109.6091 185° South  Level Estimated
08:51AM 20.4524 109.6008 185° South  Level Estimated
08:52AM 20.3590 109.5925 185° South  Level Estimated
08:53AM 20.2655 109.5842 185° South  Level Estimated
08:54AM 20.1721 109.5760 185° South  Level Estimated
08:55AM 20.0605 109.5661 185° South  Level Estimated
08:56AM 19.9490 109.5562 185° South  Level Estimated
08:57AM 19.8374 109.5464 185° South  Level Estimated
08:58AM 19.7259 109.5365 185° South  Level Estimated
08:59AM 19.6143 109.5267 185° South  Level Estimated
09:00AM 19.5028 109.5169 185° South  Level Estimated
09:01AM 19.3912 109.5071 185° South  Level Estimated
09:02AM 19.2797 109.4973 185° South  Level Estimated
09:03AM 19.1681 109.4876 185° South  Level Estimated
09:04AM 19.0566 109.4778 185° South  Level Estimated
09:05AM 18.9450 109.4681 185° South  Level Estimated
09:06AM 18.8335 109.4584 185° South  Level Estimated
09:07AM 18.7219 109.4486 185° South  Level Estimated
09:08AM 18.6104 109.4389 185° South  Level Estimated
09:09AM 18.4988 109.4293 185° South  Level Estimated
09:10AM 18.3873 109.4196 185° South  Level Estimated
09:11AM 18.3029 109.4123 185° South  Level Estimated
09:12AM 18.3029 109.4123 148° Southeast  Level Estimated
09:13AM 18.3029 109.4123 148° Southeast  Level Estimated
09:14AM 18.3029 109.4123 148° Southeast  Level Estimated
09:15AM 18.3029 109.4123 148° Southeast  Level Estimated
09:16AM 18.3029 109.4123 148° Southeast  Level Estimated
09:17AM 18.3029 109.4123 148° Southeast  Level Estimated
09:18AM 18.3029 109.4123 148° Southeast  Level Estimated